North Stonington, Connecticut
Current Conditions -  °F | °C
As of 3:53 AM on Wednesday 22 Oct 2014 (Local Time) from KWST Reporting Station
Overcast Overcast  
Wind Chill: 56°   Ceiling: 800
Heat Index: 56°   Visibility: 10mi
Dew Point: 53°   Wind: 8mph
Humidity: 90%   Direction: 20°NNE
Pressure: 29.92"   Gusts: NA
Location:  41.44°N, 71.88°W
Report Text: KWST 220753Z AUTO 02007KT 10SM OVC008 13/12 A2992 RMK AO2 SLP130 T01330117
Loading
Personal Weather Stations






























Interactive Weather Map New forecast layout! Learn more

10-Day Weather Forecast

Advertisements
Track Severe Weather on mobile